sensor_id;sensor_type;location;lat;lon;timestamp;pressure;altitude;pressure_sealevel;temperature;humidity
22964;BME280;11648;49.306;6.934;2023-10-13T00:01:09;98414.88;;;21.54;75.84
22964;BME280;11648;49.306;6.934;2023-10-13T00:03:39;98418.59;;;21.51;75.99
22964;BME280;11648;49.306;6.934;2023-10-13T00:06:07;98410.88;;;21.45;76.49
22964;BME280;11648;49.306;6.934;2023-10-13T00:08:35;98408.88;;;21.49;76.29
22964;BME280;11648;49.306;6.934;2023-10-13T00:11:04;98405.88;;;21.55;75.94
22964;BME280;11648;49.306;6.934;2023-10-13T00:13:31;98406.66;;;21.57;76.10
22964;BME280;11648;49.306;6.934;2023-10-13T00:16:09;98410.97;;;21.59;75.91
22964;BME280;11648;49.306;6.934;2023-10-13T00:18:36;98406.41;;;21.61;75.71
22964;BME280;11648;49.306;6.934;2023-10-13T00:21:10;98410.19;;;21.57;75.94
22964;BME280;11648;49.306;6.934;2023-10-13T00:23:42;98405.63;;;21.44;76.87
22964;BME280;11648;49.306;6.934;2023-10-13T00:26:25;98405.34;;;21.48;76.97
22964;BME280;11648;49.306;6.934;2023-10-13T00:29:01;98399.66;;;21.54;76.59
22964;BME280;11648;49.306;6.934;2023-10-13T00:31:37;98401.22;;;21.58;76.03
22964;BME280;11648;49.306;6.934;2023-10-13T00:34:05;98388.94;;;21.54;76.34
22964;BME280;11648;49.306;6.934;2023-10-13T00:36:41;98394.63;;;21.48;76.73
22964;BME280;11648;49.306;6.934;2023-10-13T00:39:15;98380.13;;;21.37;76.87
22964;BME280;11648;49.306;6.934;2023-10-13T00:41:43;98386.19;;;21.40;76.79
22964;BME280;11648;49.306;6.934;2023-10-13T00:44:19;98382.25;;;21.30;77.10
22964;BME280;11648;49.306;6.934;2023-10-13T00:47:05;98385.97;;;21.28;77.14
22964;BME280;11648;49.306;6.934;2023-10-13T00:49:35;98382.78;;;21.21;77.51
22964;BME280;11648;49.306;6.934;2023-10-13T00:52:06;98377.59;;;21.18;77.85
22964;BME280;11648;49.306;6.934;2023-10-13T00:54:37;98373.81;;;21.22;77.65
22964;BME280;11648;49.306;6.934;2023-10-13T00:57:05;98376.91;;;21.14;77.94
22964;BME280;11648;49.306;6.934;2023-10-13T00:59:38;98371.41;;;21.00;78.43
22964;BME280;11648;49.306;6.934;2023-10-13T01:02:08;98379.56;;;21.14;78.23
22964;BME280;11648;49.306;6.934;2023-10-13T01:04:54;98368.38;;;21.06;78.93
22964;BME280;11648;49.306;6.934;2023-10-13T01:07:21;98369.97;;;21.10;78.98
22964;BME280;11648;49.306;6.934;2023-10-13T01:09:50;98364.91;;;21.22;78.33
22964;BME280;11648;49.306;6.934;2023-10-13T01:12:17;98359.63;;;21.20;78.35
22964;BME280;11648;49.306;6.934;2023-10-13T01:14:46;98364.66;;;21.09;79.00
22964;BME280;11648;49.306;6.934;2023-10-13T01:17:13;98365.81;;;21.05;79.38
22964;BME280;11648;49.306;6.934;2023-10-13T01:19:40;98363.97;;;21.05;79.32
22964;BME280;11648;49.306;6.934;2023-10-13T01:22:12;98365.41;;;21.12;79.26
22964;BME280;11648;49.306;6.934;2023-10-13T01:24:39;98371.75;;;21.10;79.71
22964;BME280;11648;49.306;6.934;2023-10-13T01:27:07;98366.09;;;21.16;79.57
22964;BME280;11648;49.306;6.934;2023-10-13T01:29:48;98361.09;;;21.26;79.05
22964;BME280;11648;49.306;6.934;2023-10-13T01:32:17;98357.03;;;21.34;78.63
22964;BME280;11648;49.306;6.934;2023-10-13T01:34:44;98350.47;;;21.55;77.94
22964;BME280;11648;49.306;6.934;2023-10-13T01:37:13;98350.56;;;21.54;77.99
22964;BME280;11648;49.306;6.934;2023-10-13T01:39:42;98348.66;;;21.56;77.62
22964;BME280;11648;49.306;6.934;2023-10-13T01:42:13;98349.34;;;21.75;76.86
22964;BME280;11648;49.306;6.934;2023-10-13T01:44:46;98344.75;;;21.77;76.53
22964;BME280;11648;49.306;6.934;2023-10-13T01:47:13;98339.41;;;21.93;76.03
22964;BME280;11648;49.306;6.934;2023-10-13T01:49:39;98333.97;;;21.94;75.96
22964;BME280;11648;49.306;6.934;2023-10-13T01:52:14;98331.41;;;22.07;75.23
22964;BME280;11648;49.306;6.934;2023-10-13T01:54:45;98335.22;;;22.03;74.90
22964;BME280;11648;49.306;6.934;2023-10-13T01:57:13;98336.53;;;21.96;74.96
22964;BME280;11648;49.306;6.934;2023-10-13T01:59:47;98329.41;;;22.10;74.41
22964;BME280;11648;49.306;6.934;2023-10-13T02:02:15;98322.50;;;22.06;74.44
22964;BME280;11648;49.306;6.934;2023-10-13T02:04:53;98335.66;;;21.95;74.42
22964;BME280;11648;49.306;6.934;2023-10-13T02:07:24;98334.91;;;21.93;74.57
22964;BME280;11648;49.306;6.934;2023-10-13T02:09:57;98329.28;;;21.82;75.65
22964;BME280;11648;49.306;6.934;2023-10-13T02:12:24;98328.59;;;21.79;75.13
22964;BME280;11648;49.306;6.934;2023-10-13T02:15:11;98319.44;;;21.67;75.50
22964;BME280;11648;49.306;6.934;2023-10-13T02:17:48;98310.91;;;21.60;75.81
22964;BME280;11648;49.306;6.934;2023-10-13T02:20:19;98307.47;;;21.43;76.39
22964;BME280;11648;49.306;6.934;2023-10-13T02:22:49;98311.19;;;21.40;76.53
22964;BME280;11648;49.306;6.934;2023-10-13T02:25:18;98305.56;;;21.29;77.14
22964;BME280;11648;49.306;6.934;2023-10-13T02:28:02;98301.59;;;21.36;76.71
22964;BME280;11648;49.306;6.934;2023-10-13T02:30:41;98299.72;;;21.23;77.06
22964;BME280;11648;49.306;6.934;2023-10-13T02:33:12;98300.91;;;21.17;77.09
22964;BME280;11648;49.306;6.934;2023-10-13T02:35:42;98298.47;;;21.12;77.43
22964;BME280;11648;49.306;6.934;2023-10-13T02:38:10;98306.28;;;21.00;77.86
22964;BME280;11648;49.306;6.934;2023-10-13T02:40:38;98299.31;;;20.97;77.89
22964;BME280;11648;49.306;6.934;2023-10-13T02:43:06;98291.94;;;21.18;77.00
22964;BME280;11648;49.306;6.934;2023-10-13T02:45:33;98300.53;;;21.23;76.90
22964;BME280;11648;49.306;6.934;2023-10-13T02:48:04;98301.34;;;21.25;76.72
22964;BME280;11648;49.306;6.934;2023-10-13T02:50:44;98301.47;;;21.06;77.38
22964;BME280;11648;49.306;6.934;2023-10-13T02:53:12;98297.63;;;21.12;77.35
22964;BME280;11648;49.306;6.934;2023-10-13T02:55:52;98294.13;;;21.10;77.22
22964;BME280;11648;49.306;6.934;2023-10-13T02:58:19;98284.81;;;21.01;77.09
22964;BME280;11648;49.306;6.934;2023-10-13T03:00:47;98281.50;;;20.96;77.26
22964;BME280;11648;49.306;6.934;2023-10-13T03:03:14;98271.06;;;20.92;77.23
22964;BME280;11648;49.306;6.934;2023-10-13T03:05:45;98273.88;;;20.73;77.80
22964;BME280;11648;49.306;6.934;2023-10-13T03:08:12;98272.16;;;20.72;77.96
22964;BME280;11648;49.306;6.934;2023-10-13T03:10:44;98271.13;;;20.75;77.70
22964;BME280;11648;49.306;6.934;2023-10-13T03:13:16;98271.91;;;20.77;77.43
22964;BME280;11648;49.306;6.934;2023-10-13T03:15:44;98266.25;;;20.65;77.31
22964;BME280;11648;49.306;6.934;2023-10-13T03:18:14;98257.31;;;20.66;77.25
22964;BME280;11648;49.306;6.934;2023-10-13T03:20:45;98248.16;;;20.70;76.83
22964;BME280;11648;49.306;6.934;2023-10-13T03:23:17;98251.19;;;20.64;76.84
22964;BME280;11648;49.306;6.934;2023-10-13T03:25:43;98237.19;;;20.59;76.79
22964;BME280;11648;49.306;6.934;2023-10-13T03:28:10;98236.84;;;20.50;76.91
22964;BME280;11648;49.306;6.934;2023-10-13T03:30:43;98242.06;;;20.36;77.06
22964;BME280;11648;49.306;6.934;2023-10-13T03:33:10;98227.75;;;20.37;76.94
22964;BME280;11648;49.306;6.934;2023-10-13T03:35:42;98228.44;;;20.23;77.34
22964;BME280;11648;49.306;6.934;2023-10-13T03:38:10;98225.31;;;20.32;76.78
22964;BME280;11648;49.306;6.934;2023-10-13T03:40:48;98225.41;;;20.31;76.83
22964;BME280;11648;49.306;6.934;2023-10-13T03:43:15;98216.75;;;20.26;76.63
22964;BME280;11648;49.306;6.934;2023-10-13T03:45:50;98216.81;;;20.24;76.81
22964;BME280;11648;49.306;6.934;2023-10-13T03:48:27;98211.88;;;20.16;76.59
22964;BME280;11648;49.306;6.934;2023-10-13T03:50:59;98212.97;;;20.12;76.52
22964;BME280;11648;49.306;6.934;2023-10-13T03:53:42;98215.28;;;20.03;76.55
22964;BME280;11648;49.306;6.934;2023-10-13T03:56:26;98214.66;;;19.98;76.46
22964;BME280;11648;49.306;6.934;2023-10-13T03:58:59;98213.00;;;19.95;76.38
22964;BME280;11648;49.306;6.934;2023-10-13T04:01:41;98212.44;;;20.06;75.96
22964;BME280;11648;49.306;6.934;2023-10-13T04:04:17;98208.31;;;20.00;76.04
22964;BME280;11648;49.306;6.934;2023-10-13T04:07:03;98201.75;;;20.06;76.03
22964;BME280;11648;49.306;6.934;2023-10-13T04:09:37;98201.84;;;20.04;75.63
22964;BME280;11648;49.306;6.934;2023-10-13T04:12:05;98201.59;;;20.09;75.45
22964;BME280;11648;49.306;6.934;2023-10-13T04:14:45;98208.16;;;20.19;75.06
22964;BME280;11648;49.306;6.934;2023-10-13T04:17:32;98204.09;;;20.12;74.68
22964;BME280;11648;49.306;6.934;2023-10-13T04:20:07;98204.13;;;20.29;73.44
22964;BME280;11648;49.306;6.934;2023-10-13T04:22:37;98202.66;;;20.39;73.19
22964;BME280;11648;49.306;6.934;2023-10-13T04:25:17;98186.28;;;20.45;72.83
22964;BME280;11648;49.306;6.934;2023-10-13T04:28:06;98188.59;;;20.51;72.78
22964;BME280;11648;49.306;6.934;2023-10-13T04:30:51;98192.31;;;20.49;72.26
22964;BME280;11648;49.306;6.934;2023-10-13T04:33:27;98190.84;;;20.59;71.46
22964;BME280;11648;49.306;6.934;2023-10-13T04:36:14;98186.53;;;20.56;70.46
22964;BME280;11648;49.306;6.934;2023-10-13T04:38:43;98188.97;;;20.61;70.29
22964;BME280;11648;49.306;6.934;2023-10-13T04:41:33;98187.25;;;20.60;70.79
22964;BME280;11648;49.306;6.934;2023-10-13T04:44:24;98194.22;;;20.62;71.03
22964;BME280;11648;49.306;6.934;2023-10-13T04:46:58;98186.88;;;20.66;70.93
22964;BME280;11648;49.306;6.934;2023-10-13T04:49:27;98185.69;;;20.56;71.61
22964;BME280;11648;49.306;6.934;2023-10-13T04:52:09;98182.31;;;20.52;72.06
22964;BME280;11648;49.306;6.934;2023-10-13T04:54:44;98177.13;;;20.49;72.33
22964;BME280;11648;49.306;6.934;2023-10-13T04:57:12;98176.50;;;20.44;72.31
22964;BME280;11648;49.306;6.934;2023-10-13T04:59:50;98171.16;;;20.44;72.19
22964;BME280;11648;49.306;6.934;2023-10-13T05:02:46;98166.69;;;20.29;72.60
22964;BME280;11648;49.306;6.934;2023-10-13T05:05:28;98161.84;;;20.36;72.42
22964;BME280;11648;49.306;6.934;2023-10-13T05:08:18;98162.88;;;20.33;72.24
22964;BME280;11648;49.306;6.934;2023-10-13T05:11:05;98147.25;;;20.26;72.63
22964;BME280;11648;49.306;6.934;2023-10-13T05:13:50;98154.53;;;20.06;73.36
22964;BME280;11648;49.306;6.934;2023-10-13T05:16:36;98140.34;;;19.89;73.93
22964;BME280;11648;49.306;6.934;2023-10-13T05:19:21;98143.00;;;19.89;73.95
22964;BME280;11648;49.306;6.934;2023-10-13T05:22:08;98148.22;;;19.75;74.33
22964;BME280;11648;49.306;6.934;2023-10-13T05:24:53;98149.16;;;19.73;74.35
22964;BME280;11648;49.306;6.934;2023-10-13T05:27:39;98137.53;;;19.75;74.36
22964;BME280;11648;49.306;6.934;2023-10-13T05:30:24;98142.66;;;19.79;74.19
22964;BME280;11648;49.306;6.934;2023-10-13T05:33:10;98140.28;;;19.73;74.36
22964;BME280;11648;49.306;6.934;2023-10-13T05:35:55;98139.97;;;19.79;73.87
22964;BME280;11648;49.306;6.934;2023-10-13T05:38:41;98139.41;;;19.72;74.18
22964;BME280;11648;49.306;6.934;2023-10-13T05:41:26;98138.50;;;19.56;74.70
22964;BME280;11648;49.306;6.934;2023-10-13T05:44:11;98144.91;;;19.69;74.03
22964;BME280;11648;49.306;6.934;2023-10-13T05:46:57;98144.22;;;19.66;74.18
22964;BME280;11648;49.306;6.934;2023-10-13T05:49:42;98146.34;;;19.59;74.55
22964;BME280;11648;49.306;6.934;2023-10-13T05:52:09;98147.94;;;19.46;74.97
22964;BME280;11648;49.306;6.934;2023-10-13T05:54:47;98153.81;;;19.53;74.67
22964;BME280;11648;49.306;6.934;2023-10-13T05:57:32;98151.22;;;19.51;75.01
22964;BME280;11648;49.306;6.934;2023-10-13T06:00:18;98170.59;;;19.55;75.01
22964;BME280;11648;49.306;6.934;2023-10-13T06:03:03;98173.38;;;19.70;74.89
22964;BME280;11648;49.306;6.934;2023-10-13T06:05:49;98168.78;;;19.72;74.58
22964;BME280;11648;49.306;6.934;2023-10-13T06:08:34;98177.03;;;19.85;74.10
22964;BME280;11648;49.306;6.934;2023-10-13T06:11:19;98178.28;;;19.95;73.84
22964;BME280;11648;49.306;6.934;2023-10-13T06:14:18;98168.47;;;19.96;73.56
22964;BME280;11648;49.306;6.934;2023-10-13T06:17:04;98173.47;;;20.02;73.46
22964;BME280;11648;49.306;6.934;2023-10-13T06:19:49;98175.16;;;20.20;73.18
22964;BME280;11648;49.306;6.934;2023-10-13T06:22:34;98173.09;;;20.25;73.12
22964;BME280;11648;49.306;6.934;2023-10-13T06:25:20;98178.06;;;20.33;72.79
22964;BME280;11648;49.306;6.934;2023-10-13T06:28:09;98175.56;;;20.45;72.48
22964;BME280;11648;49.306;6.934;2023-10-13T06:30:58;98174.22;;;20.54;72.20
22964;BME280;11648;49.306;6.934;2023-10-13T06:33:27;98178.63;;;20.70;72.04
22964;BME280;11648;49.306;6.934;2023-10-13T06:36:04;98176.53;;;20.91;71.28
22964;BME280;11648;49.306;6.934;2023-10-13T06:38:36;98178.44;;;21.05;70.83
22964;BME280;11648;49.306;6.934;2023-10-13T06:41:05;98162.19;;;21.24;70.25
22964;BME280;11648;49.306;6.934;2023-10-13T06:43:35;98162.00;;;21.27;69.58
22964;BME280;11648;49.306;6.934;2023-10-13T06:46:10;98157.16;;;21.33;69.78
22964;BME280;11648;49.306;6.934;2023-10-13T06:48:43;98153.75;;;21.45;69.50
22964;BME280;11648;49.306;6.934;2023-10-13T06:51:10;98161.25;;;21.54;69.53
22964;BME280;11648;49.306;6.934;2023-10-13T06:53:53;98170.19;;;21.69;68.38
22964;BME280;11648;49.306;6.934;2023-10-13T06:56:23;98167.53;;;21.83;67.95
22964;BME280;11648;49.306;6.934;2023-10-13T06:58:56;98175.91;;;21.93;67.54
22964;BME280;11648;49.306;6.934;2023-10-13T07:01:27;98175.91;;;22.21;66.70
22964;BME280;11648;49.306;6.934;2023-10-13T07:03:54;98183.97;;;22.35;66.45
22964;BME280;11648;49.306;6.934;2023-10-13T07:06:28;98183.47;;;22.57;65.00
22964;BME280;11648;49.306;6.934;2023-10-13T07:08:55;98176.97;;;22.33;65.49
22964;BME280;11648;49.306;6.934;2023-10-13T07:11:28;98190.19;;;22.50;65.08
22964;BME280;11648;49.306;6.934;2023-10-13T07:14:04;98187.03;;;22.57;65.41
22964;BME280;11648;49.306;6.934;2023-10-13T07:16:43;98190.38;;;22.47;65.59
22964;BME280;11648;49.306;6.934;2023-10-13T07:19:13;98192.31;;;22.59;65.21
22964;BME280;11648;49.306;6.934;2023-10-13T07:21:46;98185.41;;;22.41;65.48
22964;BME280;11648;49.306;6.934;2023-10-13T07:24:13;98185.28;;;22.42;65.70
22964;BME280;11648;49.306;6.934;2023-10-13T07:26:40;98180.53;;;22.19;66.13
22964;BME280;11648;49.306;6.934;2023-10-13T07:29:12;98172.00;;;22.55;65.27
22964;BME280;11648;49.306;6.934;2023-10-13T07:31:39;98167.50;;;22.55;65.11
22964;BME280;11648;49.306;6.934;2023-10-13T07:34:08;98168.41;;;22.83;64.48
22964;BME280;11648;49.306;6.934;2023-10-13T07:37:07;98168.63;;;22.80;65.13
22964;BME280;11648;49.306;6.934;2023-10-13T07:39:35;98170.31;;;22.95;64.84
22964;BME280;11648;49.306;6.934;2023-10-13T07:42:05;98176.41;;;22.70;64.65
22964;BME280;11648;49.306;6.934;2023-10-13T07:44:33;98181.22;;;22.92;64.28
22964;BME280;11648;49.306;6.934;2023-10-13T07:47:01;98180.72;;;22.44;65.44
22964;BME280;11648;49.306;6.934;2023-10-13T07:49:34;98175.41;;;22.85;64.88
22964;BME280;11648;49.306;6.934;2023-10-13T07:52:06;98180.22;;;23.07;64.55
22964;BME280;11648;49.306;6.934;2023-10-13T07:54:57;98181.16;;;23.20;63.99
22964;BME280;11648;49.306;6.934;2023-10-13T07:57:41;98169.41;;;24.00;61.68
22964;BME280;11648;49.306;6.934;2023-10-13T08:00:21;98174.72;;;24.39;59.42
22964;BME280;11648;49.306;6.934;2023-10-13T08:03:21;98158.09;;;25.89;56.60
22964;BME280;11648;49.306;6.934;2023-10-13T08:06:07;98144.44;;;26.70;53.87
22964;BME280;11648;49.306;6.934;2023-10-13T08:08:48;98142.31;;;27.91;49.83
22964;BME280;11648;49.306;6.934;2023-10-13T08:11:20;98115.72;;;28.78;46.79
22964;BME280;11648;49.306;6.934;2023-10-13T08:14:01;98101.16;;;29.48;44.65
22964;BME280;11648;49.306;6.934;2023-10-13T08:16:51;98103.72;;;30.98;41.72
22964;BME280;11648;49.306;6.934;2023-10-13T08:19:29;98093.63;;;32.56;38.59
22964;BME280;11648;49.306;6.934;2023-10-13T08:22:15;98079.78;;;33.25;36.81
22964;BME280;11648;49.306;6.934;2023-10-13T08:24:46;98062.38;;;33.91;35.68
22964;BME280;11648;49.306;6.934;2023-10-13T08:27:15;98054.19;;;33.35;34.95
22964;BME280;11648;49.306;6.934;2023-10-13T08:29:46;98072.59;;;31.63;37.85
22964;BME280;11648;49.306;6.934;2023-10-13T08:32:16;98076.56;;;30.61;40.66
22964;BME280;11648;49.306;6.934;2023-10-13T08:34:56;98093.16;;;30.21;41.74
22964;BME280;11648;49.306;6.934;2023-10-13T08:37:27;98096.31;;;29.41;43.39
22964;BME280;11648;49.306;6.934;2023-10-13T08:39:55;98109.28;;;28.39;45.92
22964;BME280;11648;49.306;6.934;2023-10-13T08:42:55;98118.25;;;28.09;47.45
22964;BME280;11648;49.306;6.934;2023-10-13T08:45:38;98116.97;;;27.92;47.92
22964;BME280;11648;49.306;6.934;2023-10-13T08:48:06;98109.09;;;27.16;49.49
22964;BME280;11648;49.306;6.934;2023-10-13T08:50:45;98112.81;;;27.15;50.01
22964;BME280;11648;49.306;6.934;2023-10-13T08:53:18;98119.72;;;27.08;50.83
22964;BME280;11648;49.306;6.934;2023-10-13T08:56:00;98114.88;;;26.35;53.03
22964;BME280;11648;49.306;6.934;2023-10-13T08:58:58;98119.53;;;26.56;53.11
22964;BME280;11648;49.306;6.934;2023-10-13T09:01:29;98110.44;;;26.57;52.58
22964;BME280;11648;49.306;6.934;2023-10-13T09:04:07;98123.09;;;26.56;52.35
22964;BME280;11648;49.306;6.934;2023-10-13T09:06:55;98120.75;;;26.63;52.38
22964;BME280;11648;49.306;6.934;2023-10-13T09:12:20;98099.63;;;27.22;49.83
22964;BME280;11648;49.306;6.934;2023-10-13T09:14:55;98111.28;;;27.33;49.59
22964;BME280;11648;49.306;6.934;2023-10-13T09:17:25;98109.88;;;28.12;48.61
22964;BME280;11648;49.306;6.934;2023-10-13T09:20:06;98107.50;;;28.19;47.70
22964;BME280;11648;49.306;6.934;2023-10-13T09:22:52;98111.22;;;28.58;46.79
22964;BME280;11648;49.306;6.934;2023-10-13T09:25:46;98108.50;;;28.58;46.32
22964;BME280;11648;49.306;6.934;2023-10-13T09:28:35;98093.16;;;29.56;44.51
22964;BME280;11648;49.306;6.934;2023-10-13T09:31:03;98074.16;;;31.92;41.62
22964;BME280;11648;49.306;6.934;2023-10-13T09:33:36;98054.88;;;33.93;34.90
22964;BME280;11648;49.306;6.934;2023-10-13T09:36:04;98046.47;;;34.74;33.52
22964;BME280;11648;49.306;6.934;2023-10-13T09:38:36;98058.44;;;34.26;33.90
22964;BME280;11648;49.306;6.934;2023-10-13T09:41:07;98054.16;;;34.23;34.56
22964;BME280;11648;49.306;6.934;2023-10-13T09:43:57;98062.38;;;33.18;35.87
22964;BME280;11648;49.306;6.934;2023-10-13T09:46:26;98064.56;;;33.23;36.05
22964;BME280;11648;49.306;6.934;2023-10-13T09:48:59;98061.06;;;33.87;
22964;BME280;11648;49.306;6.934;2023-10-13T09:51:35;98050.94;;;34.67;32.70
22964;BME280;11648;49.306;6.934;2023-10-13T09:54:14;98054.19;;;34.15;33.97
22964;BME280;11648;49.306;6.934;2023-10-13T09:57:08;98046.38;;;33.72;33.95
22964;BME280;11648;49.306;6.934;2023-10-13T09:59:46;98034.31;;;35.53;32.12
22964;BME280;11648;49.306;6.934;2023-10-13T10:02:19;98019.75;;;35.60;30.96
22964;BME280;11648;49.306;6.934;2023-10-13T10:04:56;98029.41;;;34.56;32.08
22964;BME280;11648;49.306;6.934;2023-10-13T10:07:39;98032.78;;;35.05;31.97
22964;BME280;11648;49.306;6.934;2023-10-13T10:10:07;98016.91;;;36.50;30.17
22964;BME280;11648;49.306;6.934;2023-10-13T10:12:52;98004.94;;;37.86;28.84
22964;BME280;11648;49.306;6.934;2023-10-13T10:15:28;97990.59;;;39.20;26.86
22964;BME280;11648;49.306;6.934;2023-10-13T10:18:02;97993.94;;;39.02;26.53
22964;BME280;11648;49.306;6.934;2023-10-13T10:20:31;98000.13;;;37.95;27.36
22964;BME280;11648;49.306;6.934;2023-10-13T10:23:26;98006.00;;;37.92;27.50
22964;BME280;11648;49.306;6.934;2023-10-13T10:25:55;98002.56;;;38.39;27.48
22964;BME280;11648;49.306;6.934;2023-10-13T10:28:38;97981.78;;;41.81;23.11
22964;BME280;11648;49.306;6.934;2023-10-13T10:31:09;97978.53;;;44.41;21.26
22964;BME280;11648;49.306;6.934;2023-10-13T10:33:44;97982.50;;;43.75;20.20
22964;BME280;11648;49.306;6.934;2023-10-13T10:36:13;97976.63;;;44.30;20.20
22964;BME280;11648;49.306;6.934;2023-10-13T10:38:55;97968.16;;;42.96;21.34
22964;BME280;11648;49.306;6.934;2023-10-13T10:41:27;97991.00;;;41.37;23.64
22964;BME280;11648;49.306;6.934;2023-10-13T10:44:14;97993.03;;;39.82;24.27
22964;BME280;11648;49.306;6.934;2023-10-13T10:46:49;97980.28;;;40.14;24.46
22964;BME280;11648;49.306;6.934;2023-10-13T10:49:19;97976.84;;;41.27;22.56
22964;BME280;11648;49.306;6.934;2023-10-13T10:51:59;97972.84;;;40.15;23.70
22964;BME280;11648;49.306;6.934;2023-10-13T10:54:31;97975.38;;;38.70;25.75
22964;BME280;11648;49.306;6.934;2023-10-13T10:56:59;97989.44;;;37.36;26.47
22964;BME280;11648;49.306;6.934;2023-10-13T10:59:47;97990.19;;;37.24;27.32
22964;BME280;11648;49.306;6.934;2023-10-13T11:02:13;97993.09;;;35.92;28.84
22964;BME280;11648;49.306;6.934;2023-10-13T11:04:50;97982.75;;;35.79;28.82
22964;BME280;11648;49.306;6.934;2023-10-13T11:07:23;97982.69;;;35.87;28.51
22964;BME280;11648;49.306;6.934;2023-10-13T11:09:50;97973.50;;;35.43;28.71
22964;BME280;11648;49.306;6.934;2023-10-13T11:12:31;97979.34;;;35.17;29.50
22964;BME280;11648;49.306;6.934;2023-10-13T11:15:07;97973.94;;;34.00;30.72
22964;BME280;11648;49.306;6.934;2023-10-13T11:17:49;97976.81;;;32.69;32.17
22964;BME280;11648;49.306;6.934;2023-10-13T11:20:25;97975.88;;;33.59;31.60
22964;BME280;11648;49.306;6.934;2023-10-13T11:22:52;97966.09;;;34.44;31.32
22964;BME280;11648;49.306;6.934;2023-10-13T11:25:22;97955.84;;;35.97;28.66
22964;BME280;11648;49.306;6.934;2023-10-13T11:27:50;97951.31;;;36.34;28.75
22964;BME280;11648;49.306;6.934;2023-10-13T11:30:17;97925.75;;;36.48;27.41
22964;BME280;11648;49.306;6.934;2023-10-13T11:33:05;97937.03;;;37.31;26.30
22964;BME280;11648;49.306;6.934;2023-10-13T11:35:39;97929.59;;;36.68;26.67
22964;BME280;11648;49.306;6.934;2023-10-13T11:41:02;97932.94;;;34.47;29.10
22964;BME280;11648;49.306;6.934;2023-10-13T11:43:39;97927.63;;;34.15;29.94
22964;BME280;11648;49.306;6.934;2023-10-13T11:46:10;97931.69;;;33.56;30.31
22964;BME280;11648;49.306;6.934;2023-10-13T11:48:43;97928.09;;;32.91;30.91
22964;BME280;11648;49.306;6.934;2023-10-13T11:51:12;97922.41;;;32.52;31.51
22964;BME280;11648;49.306;6.934;2023-10-13T11:53:44;97924.78;;;32.55;30.97
22964;BME280;11648;49.306;6.934;2023-10-13T11:56:19;97921.16;;;33.20;30.63
22964;BME280;11648;49.306;6.934;2023-10-13T11:58:49;97911.63;;;33.24;30.90
22964;BME280;11648;49.306;6.934;2023-10-13T12:01:17;97908.16;;;33.47;30.36
22964;BME280;11648;49.306;6.934;2023-10-13T12:03:49;97903.38;;;33.49;31.10
22964;BME280;11648;49.306;6.934;2023-10-13T12:06:35;97907.13;;;33.72;30.42
22964;BME280;11648;49.306;6.934;2023-10-13T12:09:05;97906.75;;;33.75;31.00
22964;BME280;11648;49.306;6.934;2023-10-13T12:11:49;97899.47;;;33.51;31.08
22964;BME280;11648;49.306;6.934;2023-10-13T12:14:21;97901.69;;;33.40;31.49
22964;BME280;11648;49.306;6.934;2023-10-13T12:17:04;97897.13;;;33.24;31.08
22964;BME280;11648;49.306;6.934;2023-10-13T12:19:31;97883.41;;;32.43;31.26
22964;BME280;11648;49.306;6.934;2023-10-13T12:21:58;97890.78;;;32.09;31.88
22964;BME280;11648;49.306;6.934;2023-10-13T12:24:34;97892.53;;;32.18;32.34
22964;BME280;11648;49.306;6.934;2023-10-13T12:27:05;97895.00;;;31.44;32.55
22964;BME280;11648;49.306;6.934;2023-10-13T12:29:50;97894.22;;;31.25;33.50
22964;BME280;11648;49.306;6.934;2023-10-13T12:32:19;97892.03;;;31.03;34.22
22964;BME280;11648;49.306;6.934;2023-10-13T12:34:57;97889.31;;;31.03;34.44
22964;BME280;11648;49.306;6.934;2023-10-13T12:37:32;97883.34;;;30.82;35.23
22964;BME280;11648;49.306;6.934;2023-10-13T12:40:13;97881.47;;;30.47;34.71
22964;BME280;11648;49.306;6.934;2023-10-13T12:43:00;97880.16;;;30.69;34.87
22964;BME280;11648;49.306;6.934;2023-10-13T12:45:46;97879.31;;;30.51;36.89
22964;BME280;11648;49.306;6.934;2023-10-13T12:48:34;97872.38;;;30.38;35.57
22964;BME280;11648;49.306;6.934;2023-10-13T12:51:20;97870.00;;;30.53;36.26
22964;BME280;11648;49.306;6.934;2023-10-13T12:53:51;97874.91;;;30.50;36.10
22964;BME280;11648;49.306;6.934;2023-10-13T12:56:21;97865.84;;;30.31;36.01
22964;BME280;11648;49.306;6.934;2023-10-13T12:58:55;97859.72;;;30.29;36.75
22964;BME280;11648;49.306;6.934;2023-10-13T13:01:22;97858.06;;;30.19;36.81
22964;BME280;11648;49.306;6.934;2023-10-13T13:03:52;97858.28;;;30.08;37.06
22964;BME280;11648;49.306;6.934;2023-10-13T13:06:24;97856.72;;;29.87;37.97
22964;BME280;11648;49.306;6.934;2023-10-13T13:08:56;97855.38;;;29.64;37.63
22964;BME280;11648;49.306;6.934;2023-10-13T13:11:23;97843.22;;;29.68;37.58
22964;BME280;11648;49.306;6.934;2023-10-13T13:13:53;97846.88;;;29.77;37.25
22964;BME280;11648;49.306;6.934;2023-10-13T13:16:20;97837.44;;;29.81;38.38
22964;BME280;11648;49.306;6.934;2023-10-13T13:18:51;97827.78;;;29.96;38.13
22964;BME280;11648;49.306;6.934;2023-10-13T13:21:17;97818.50;;;29.99;39.27
22964;BME280;11648;49.306;6.934;2023-10-13T13:23:50;97818.09;;;30.11;37.98
22964;BME280;11648;49.306;6.934;2023-10-13T13:26:17;97815.63;;;30.18;37.82
22964;BME280;11648;49.306;6.934;2023-10-13T13:28:45;97816.66;;;29.99;37.41
22964;BME280;11648;49.306;6.934;2023-10-13T13:31:12;97808.41;;;30.09;38.15
22964;BME280;11648;49.306;6.934;2023-10-13T13:33:39;97805.94;;;30.15;37.67
22964;BME280;11648;49.306;6.934;2023-10-13T13:36:10;97795.47;;;29.85;36.90
22964;BME280;11648;49.306;6.934;2023-10-13T13:38:43;97794.44;;;30.04;37.36
22964;BME280;11648;49.306;6.934;2023-10-13T13:41:17;97793.22;;;30.51;37.44
22964;BME280;11648;49.306;6.934;2023-10-13T13:43:45;97784.59;;;30.56;36.44
22964;BME280;11648;49.306;6.934;2023-10-13T13:46:22;97771.25;;;30.27;35.61
22964;BME280;11648;49.306;6.934;2023-10-13T13:48:59;97783.06;;;30.53;35.04